Time;durP1;ratioP1;P1;durP2;ratioP2;P2;SDS_P1;SDS_P2;PMS_P1;PMS_P2;Temp;Humidity;BMP_temperature;BMP_pressure;BME280_temperature;BME280_humidity;BME280_pressure;Samples;Min_cycle;Max_cycle;Signal;HPM_P1;HPM_P2
2021/11/18 00:01:09;;;;;;;;;19.50;17.25;;;;;-147.17;100.00;50033.00;5034802;28;50946;-65
2021/11/18 00:03:36;;;;;;;;;18.75;17.25;;;;;-147.17;100.00;50025.13;5033991;28;51081;-64
2021/11/18 00:06:01;;;;;;;;;18.75;18.00;;;;;-147.17;100.00;50009.38;5033251;28;51189;-64
2021/11/18 00:08:27;;;;;;;;;20.50;19.00;;;;;-147.17;100.00;49977.88;5033231;28;50917;-64
2021/11/18 00:10:58;;;;;;;;;19.00;17.50;;;;;-147.17;100.00;50034.97;5045753;28;51120;-64
2021/11/18 00:13:28;;;;;;;;;20.25;18.50;;;;;-147.17;100.00;50003.47;5014369;28;51025;-62
2021/11/18 00:15:54;;;;;;;;;13.25;13.00;;;;;-147.17;100.00;50052.69;5014383;28;51014;-64
2021/11/18 00:18:22;;;;;;;;;14.25;13.50;;;;;-147.17;100.00;49993.63;5023535;28;51340;-64
2021/11/18 00:20:54;;;;;;;;;13.50;12.25;;;;;-147.17;100.00;50050.72;5034312;28;50922;-64
2021/11/18 00:23:21;;;;;;;;;17.00;15.25;;;;;-147.17;100.00;50042.84;5033143;28;51061;-65
2021/11/18 00:25:47;;;;;;;;;13.75;13.75;;;;;-147.17;100.00;50078.28;5033132;28;52077;-65
2021/11/18 00:28:13;;;;;;;;;18.75;16.25;;;;;-147.17;100.00;50044.81;5027475;28;50999;-64
2021/11/18 00:30:39;;;;;;;;;14.00;12.25;;;;;-147.17;100.00;50033.00;5024946;28;51001;-64
2021/11/18 00:33:05;;;;;;;;;15.75;13.50;;;;;-147.17;100.00;50036.94;5015994;28;51106;-64
2021/11/18 00:35:32;;;;;;;;;14.75;13.00;;;;;-147.17;100.00;50011.34;5029597;28;51803;-64
2021/11/18 00:37:58;;;;;;;;;12.67;11.67;;;;;-147.17;100.00;50064.50;5028322;28;51144;-62
2021/11/18 00:40:29;;;;;;;;;13.50;12.75;;;;;-147.17;100.00;50017.25;5032774;28;51090;-65
2021/11/18 00:42:55;;;;;;;;;13.00;13.00;;;;;-147.17;100.00;50029.06;5030331;28;51061;-62
2021/11/18 00:45:25;;;;;;;;;12.00;11.00;;;;;-147.17;100.00;50023.16;5031837;28;52959;-63
2021/11/18 00:47:53;;;;;;;;;14.00;12.25;;;;;-147.17;100.00;50052.69;5033896;28;51148;-64
2021/11/18 00:50:21;;;;;;;;;14.75;12.75;;;;;-147.17;100.00;50019.22;5031422;28;51331;-63
2021/11/18 00:52:47;;;;;;;;;17.00;14.75;;;;;-147.17;100.00;50044.81;5033857;28;51197;-62
2021/11/18 00:55:13;;;;;;;;;18.50;18.50;;;;;-147.17;100.00;50009.38;5032468;28;52800;-61
2021/11/18 00:57:39;;;;;;;;;19.00;18.50;;;;;-147.17;100.00;50038.91;5034109;28;51060;-63
2021/11/18 01:00:12;;;;;;;;;16.75;14.50;;;;;-147.17;100.00;50062.53;5037974;28;51879;-62
2021/11/18 01:02:37;;;;;;;;;17.50;16.00;;;;;-147.17;100.00;50011.34;5043117;28;50876;-62
2021/11/18 01:05:03;;;;;;;;;14.75;13.00;;;;;-147.17;100.00;50027.09;5032113;28;51911;-62
2021/11/18 01:07:29;;;;;;;;;18.75;17.25;;;;;-147.17;100.00;50025.13;5035095;28;51086;-62
2021/11/18 01:09:54;;;;;;;;;16.25;13.25;;;;;-147.17;100.00;50001.50;5031433;28;51081;-62
2021/11/18 01:12:20;;;;;;;;;14.00;12.25;;;;;-147.17;100.00;50017.25;5033040;28;51039;-62
2021/11/18 01:14:45;;;;;;;;;21.25;18.75;;;;;-147.17;100.00;50023.16;5031361;28;51797;-62
2021/11/18 01:17:11;;;;;;;;;16.25;14.75;;;;;-147.17;100.00;50013.31;5024901;28;51212;-61
2021/11/18 01:19:38;;;;;;;;;13.00;12.75;;;;;-147.17;100.00;50064.50;5031898;28;51205;-63
2021/11/18 01:22:06;;;;;;;;;16.50;14.75;;;;;-147.17;100.00;50040.88;5029127;28;50987;-62
2021/11/18 01:24:32;;;;;;;;;19.00;18.75;;;;;-147.17;100.00;50025.13;5023935;28;51834;-62
2021/11/18 01:26:58;;;;;;;;;16.00;14.00;;;;;-147.17;100.00;50060.56;5030230;28;51143;-63
2021/11/18 01:29:24;;;;;;;;;19.75;16.50;;;;;-147.17;100.00;50027.09;5030465;28;51188;-63
2021/11/18 01:31:49;;;;;;;;;15.75;15.75;;;;;-147.17;100.00;50025.13;5033369;28;51177;-63
2021/11/18 01:34:14;;;;;;;;;16.75;16.75;;;;;-147.17;100.00;50042.84;5030836;28;52940;-63
2021/11/18 01:36:41;;;;;;;;;18.75;17.75;;;;;-147.17;100.00;49993.63;5037012;28;51146;-63
2021/11/18 01:39:07;;;;;;;;;18.00;16.00;;;;;-147.17;100.00;50017.25;5033074;28;51376;-63
2021/11/18 01:41:33;;;;;;;;;19.50;18.75;;;;;-147.17;100.00;50040.88;5028129;28;51165;-63
2021/11/18 01:44:02;;;;;;;;;17.25;17.00;;;;;-147.17;100.00;50054.66;5018829;28;51256;-64
2021/11/18 01:46:36;;;;;;;;;17.75;14.00;;;;;-147.17;100.00;49997.56;5028978;28;51022;-65
2021/11/18 01:49:04;;;;;;;;;16.00;14.75;;;;;-147.17;100.00;50023.16;5020582;28;51240;-65
2021/11/18 01:51:33;;;;;;;;;13.50;12.50;;;;;-147.17;100.00;50060.56;5034340;28;51169;-64
2021/11/18 01:54:01;;;;;;;;;17.00;14.50;;;;;-147.17;100.00;50021.19;5031890;28;54132;-63
2021/11/18 01:56:31;;;;;;;;;16.50;14.75;;;;;-147.17;100.00;50080.25;5034440;28;51053;-63
2021/11/18 01:59:00;;;;;;;;;16.50;13.50;;;;;-147.17;100.00;50009.38;5030111;28;51080;-63
2021/11/18 02:01:26;;;;;;;;;15.00;14.75;;;;;-147.17;100.00;50031.03;5034592;28;51312;-63
2021/11/18 02:03:52;;;;;;;;;13.50;13.25;;;;;-147.17;100.00;50033.00;5032331;28;51280;-63
2021/11/18 02:06:30;;;;;;;;;12.50;11.75;;;;;-147.17;100.00;50054.66;5035765;28;51086;-65
2021/11/18 02:08:56;;;;;;;;;13.25;13.00;;;;;-147.17;100.00;50042.84;5031901;28;51114;-65
2021/11/18 02:11:33;;;;;;;;;8.50;6.50;;;;;-147.17;100.00;50019.22;5034430;28;51046;-65
2021/11/18 02:14:00;;;;;;;;;13.00;12.25;;;;;-147.17;100.00;50048.75;5032784;28;51099;-63
2021/11/18 02:16:26;;;;;;;;;15.75;14.25;;;;;-147.17;100.00;50052.69;5035757;28;50861;-64
2021/11/18 02:18:51;;;;;;;;;15.00;12.00;;;;;-147.17;100.00;50042.84;5028580;28;51368;-64
2021/11/18 02:21:17;;;;;;;;;14.00;12.00;;;;;-147.17;100.00;50042.84;5034184;28;51278;-64
2021/11/18 02:23:47;;;;;;;;;16.25;13.50;;;;;-147.17;100.00;50013.31;5030638;28;51891;-63
2021/11/18 02:26:13;;;;;;;;;14.50;13.25;;;;;-147.17;100.00;50044.81;5034557;28;51011;-62
2021/11/18 02:28:42;;;;;;;;;14.00;13.00;;;;;-147.17;100.00;50068.44;5030009;28;52367;-62
2021/11/18 02:31:39;;;;;;;;;17.25;14.75;;;;;-147.17;100.00;50054.66;5026076;28;51066;-63
2021/11/18 02:34:13;;;;;;;;;14.75;12.75;;;;;-147.17;100.00;50050.72;4992152;28;51800;-62
2021/11/18 02:36:39;;;;;;;;;13.75;12.25;;;;;-147.17;100.00;50056.63;5034113;28;50897;-63
2021/11/18 02:39:05;;;;;;;;;14.00;13.00;;;;;-147.17;100.00;50029.06;5026416;28;51250;-64
2021/11/18 02:41:31;;;;;;;;;16.75;14.00;;;;;-147.17;100.00;50052.69;5031314;28;50993;-64
2021/11/18 02:43:56;;;;;;;;;13.25;13.00;;;;;-147.17;100.00;50048.75;5029210;28;52074;-64
2021/11/18 02:46:22;;;;;;;;;10.50;10.25;;;;;-147.17;100.00;50064.50;5027853;28;51291;-64
2021/11/18 02:48:47;;;;;;;;;14.25;12.00;;;;;-147.17;100.00;50056.63;5022462;28;51332;-65
2021/11/18 02:51:14;;;;;;;;;13.00;13.00;;;;;-147.17;100.00;50056.63;5028941;28;51077;-64
2021/11/18 02:53:41;;;;;;;;;17.00;14.25;;;;;-147.17;100.00;50025.13;5013028;28;52109;-64
2021/11/18 02:56:07;;;;;;;;;14.25;11.75;;;;;-147.17;100.00;50076.31;5032973;28;51031;-64
2021/11/18 02:58:34;;;;;;;;;14.25;13.00;;;;;-147.17;100.00;50040.88;5030161;28;51232;-64
2021/11/18 03:01:08;;;;;;;;;16.75;13.50;;;;;-147.17;100.00;50025.13;5028326;28;51196;-65
2021/11/18 03:03:35;;;;;;;;;17.50;14.75;;;;;-147.17;100.00;50060.56;5020703;28;54063;-62
2021/11/18 03:06:01;;;;;;;;;17.50;15.25;;;;;-147.17;100.00;50034.97;5031618;28;52383;-63
2021/11/18 03:08:27;;;;;;;;;10.75;10.25;;;;;-147.17;100.00;50068.44;5029714;28;51141;-64
2021/11/18 03:10:54;;;;;;;;;15.75;11.75;;;;;-147.17;100.00;50025.13;5033460;28;51093;-66
2021/11/18 03:13:22;;;;;;;;;15.25;13.00;;;;;-147.17;100.00;50048.75;5031512;28;52531;-65
2021/11/18 03:15:50;;;;;;;;;17.75;16.50;;;;;-147.17;100.00;50038.91;5029554;28;51171;-64
2021/11/18 03:18:17;;;;;;;;;16.75;15.50;;;;;-147.17;100.00;50033.00;5025058;28;51091;-64
2021/11/18 03:20:43;;;;;;;;;13.50;13.00;;;;;-147.17;100.00;50042.84;5032699;28;51306;-64
2021/11/18 03:23:10;;;;;;;;;16.50;16.25;;;;;-147.17;100.00;50029.06;5031748;28;53016;-64
2021/11/18 03:25:37;;;;;;;;;16.00;14.75;;;;;-147.17;100.00;50074.34;5030534;28;50852;-64
2021/11/18 03:28:05;;;;;;;;;18.25;15.25;;;;;-147.17;100.00;50050.72;5032099;28;50988;-64
2021/11/18 03:30:35;;;;;;;;;17.00;14.50;;;;;-147.17;100.00;50048.75;5028755;28;51511;-63
2021/11/18 03:33:04;;;;;;;;;16.33;15.33;;;;;-147.17;100.00;50031.03;5017173;28;51867;-63
2021/11/18 03:35:30;;;;;;;;;12.50;11.50;;;;;-147.17;100.00;50052.69;5029860;28;51037;-62
2021/11/18 03:38:00;;;;;;;;;16.00;15.00;;;;;-147.17;100.00;50088.13;5019754;28;50982;-62
2021/11/18 03:40:26;;;;;;;;;13.33;12.67;;;;;-147.17;100.00;50078.28;5030687;28;51010;-63
2021/11/18 03:42:52;;;;;;;;;18.00;17.25;;;;;-147.17;100.00;50025.13;5016371;28;51987;-63
2021/11/18 03:45:19;;;;;;;;;12.00;12.00;;;;;-147.17;100.00;50090.09;5028313;28;51277;-62
2021/11/18 03:47:45;;;;;;;;;16.00;12.50;;;;;-147.17;100.00;50060.56;5031640;28;50972;-63
2021/11/18 03:50:12;;;;;;;;;12.33;11.00;;;;;-147.17;100.00;50072.38;5028975;28;51288;-63
2021/11/18 03:52:38;;;;;;;;;13.50;12.00;;;;;-147.17;100.00;50033.00;5020038;28;51029;-63
2021/11/18 03:55:10;;;;;;;;;11.67;11.33;;;;;-147.17;100.00;50080.25;5029117;28;51176;-63
2021/11/18 03:57:36;;;;;;;;;13.50;12.75;;;;;-147.17;100.00;50056.63;5031651;28;51101;-63
2021/11/18 04:00:05;;;;;;;;;17.75;16.00;;;;;-147.17;100.00;50086.16;5029747;28;51392;-63
2021/11/18 04:02:31;;;;;;;;;11.67;9.67;;;;;-147.17;100.00;50107.78;5014283;28;51012;-63
2021/11/18 04:05:00;;;;;;;;;16.00;11.67;;;;;-147.17;100.00;50080.25;5029449;28;51023;-63
2021/11/18 04:07:27;;;;;;;;;14.25;13.50;;;;;-147.17;100.00;50095.97;5025894;28;51096;-63
2021/11/18 04:09:52;;;;;;;;;16.75;14.25;;;;;-147.17;100.00;50064.50;5031964;28;53414;-63
2021/11/18 04:12:18;;;;;;;;;16.75;12.25;;;;;-147.17;100.00;50031.03;5035822;28;52300;-63
2021/11/18 04:14:44;;;;;;;;;15.50;15.00;;;;;-147.17;100.00;50082.22;5033802;28;51195;-63
2021/11/18 04:17:11;;;;;;;;;12.25;12.25;;;;;-147.17;100.00;50056.63;5030924;28;51131;-63
2021/11/18 04:19:36;;;;;;;;;10.33;10.33;;;;;-147.17;100.00;50090.09;5027334;28;50951;-63
2021/11/18 04:22:03;;;;;;;;;14.67;13.67;;;;;-147.17;100.00;50084.19;5030315;28;51935;-63
2021/11/18 04:24:32;;;;;;;;;15.00;13.50;;;;;-147.17;100.00;50103.84;5024537;28;51084;-63
2021/11/18 04:26:58;;;;;;;;;17.50;13.00;;;;;-147.17;100.00;50097.94;5031307;28;51109;-63
2021/11/18 04:29:28;;;;;;;;;13.00;11.50;;;;;-147.17;100.00;50090.09;5032356;28;51133;-63
2021/11/18 04:32:02;;;;;;;;;16.00;13.25;;;;;-147.17;100.00;50066.47;5029728;28;52280;-62
2021/11/18 04:34:28;;;;;;;;;14.50;14.50;;;;;-147.17;100.00;50082.22;5024042;28;51068;-63
2021/11/18 04:36:53;;;;;;;;;13.25;13.25;;;;;-147.17;100.00;50072.38;5034395;28;51121;-63
2021/11/18 04:39:19;;;;;;;;;13.75;12.75;;;;;-147.17;100.00;50044.81;5032835;28;51065;-63
2021/11/18 04:41:45;;;;;;;;;12.00;12.00;;;;;-147.17;100.00;50123.53;5028620;28;51785;-63
2021/11/18 04:44:11;;;;;;;;;15.50;13.50;;;;;-147.17;100.00;50070.41;5020277;28;51257;-63
2021/11/18 04:46:37;;;;;;;;;15.75;12.00;;;;;-147.17;100.00;50086.16;5033348;28;51165;-63
2021/11/18 04:49:03;;;;;;;;;20.25;18.25;;;;;-147.17;100.00;50103.84;5032875;28;51145;-63
2021/11/18 04:51:29;;;;;;;;;15.25;11.50;;;;;-147.17;100.00;50033.00;5035199;28;51140;-63
2021/11/18 04:53:56;;;;;;;;;16.50;14.25;;;;;-147.17;100.00;50064.50;5032664;28;51070;-63
2021/11/18 04:56:22;;;;;;;;;15.25;14.75;;;;;-147.17;100.00;50046.78;5032236;28;50939;-63
2021/11/18 04:58:47;;;;;;;;;14.00;14.00;;;;;-147.17;100.00;50056.63;5032850;28;51141;-63
2021/11/18 05:01:14;;;;;;;;;15.00;15.00;;;;;-147.17;100.00;50078.28;5032794;28;52889;-63
2021/11/18 05:03:41;;;;;;;;;15.75;14.75;;;;;-147.17;100.00;50054.66;5031979;28;51172;-63
2021/11/18 05:06:07;;;;;;;;;13.25;13.25;;;;;-147.17;100.00;50048.75;5028950;28;52936;-63
2021/11/18 05:08:32;;;;;;;;;13.75;12.75;;;;;-147.17;100.00;50070.41;5021502;28;51181;-63
2021/11/18 05:10:58;;;;;;;;;17.75;17.00;;;;;-147.17;100.00;50076.31;5034058;28;51677;-63
2021/11/18 05:13:28;;;;;;;;;18.25;16.75;;;;;-147.17;100.00;50080.25;5032994;28;50987;-63
2021/11/18 05:15:56;;;;;;;;;19.25;16.00;;;;;-147.17;100.00;50078.28;5033285;28;51102;-63
2021/11/18 05:18:22;;;;;;;;;11.75;9.00;;;;;-147.17;100.00;50072.38;5033497;28;51085;-63
2021/11/18 05:20:48;;;;;;;;;15.50;15.25;;;;;-147.17;100.00;50103.84;5033194;28;52876;-63
2021/11/18 05:23:15;;;;;;;;;18.75;17.25;;;;;-147.17;100.00;50103.84;5033281;28;51225;-63
2021/11/18 05:25:41;;;;;;;;;16.00;15.25;;;;;-147.17;100.00;50103.84;5034230;28;51094;-63
2021/11/18 05:28:07;;;;;;;;;16.50;16.00;;;;;-147.17;100.00;50068.44;5030255;28;50906;-63
2021/11/18 05:30:33;;;;;;;;;17.75;16.50;;;;;-147.17;100.00;50084.19;5030662;28;52876;-63
2021/11/18 05:33:03;;;;;;;;;16.00;15.50;;;;;-147.17;100.00;50066.47;5035053;28;51141;-63
2021/11/18 05:35:30;;;;;;;;;17.50;17.25;;;;;-147.17;100.00;50094.00;5031635;28;51173;-63
2021/11/18 05:37:56;;;;;;;;;15.00;12.75;;;;;-147.17;100.00;50119.59;5030276;28;51406;-63
2021/11/18 05:40:23;;;;;;;;;22.75;19.25;;;;;-147.17;100.00;50070.41;5029544;28;51647;-63
2021/11/18 05:42:49;;;;;;;;;17.25;17.00;;;;;-147.17;100.00;50092.03;5017268;28;50898;-63
2021/11/18 05:45:20;;;;;;;;;15.75;15.50;;;;;-147.17;100.00;50099.91;5029816;28;50927;-63
2021/11/18 05:47:45;;;;;;;;;18.50;17.00;;;;;-147.17;100.00;50060.56;5028390;28;51112;-63
2021/11/18 05:50:13;;;;;;;;;18.50;17.25;;;;;-147.17;100.00;50113.69;5028197;28;52862;-62
2021/11/18 05:52:40;;;;;;;;;15.50;15.25;;;;;-147.17;100.00;50097.94;5031935;28;51046;-63
2021/11/18 05:55:06;;;;;;;;;17.75;17.50;;;;;-147.17;100.00;50070.41;5027775;28;51314;-63
2021/11/18 05:57:31;;;;;;;;;17.25;16.75;;;;;-147.17;100.00;50088.13;5028590;28;51137;-62
2021/11/18 05:59:57;;;;;;;;;18.75;18.50;;;;;-147.17;100.00;50078.28;5026393;28;52283;-62
2021/11/18 06:02:22;;;;;;;;;15.75;13.25;;;;;-147.17;100.00;50111.72;5031657;28;51144;-63
2021/11/18 06:04:48;;;;;;;;;17.75;17.50;;;;;-147.17;100.00;50076.31;5028543;28;51164;-62
2021/11/18 06:07:13;;;;;;;;;21.50;19.00;;;;;-147.17;100.00;50084.19;5032005;28;51212;-64
2021/11/18 06:09:39;;;;;;;;;22.25;20.25;;;;;-147.17;100.00;50072.38;5032290;28;52089;-63
2021/11/18 06:12:05;;;;;;;;;22.75;22.75;;;;;-147.17;100.00;50074.34;5028533;28;51119;-63
2021/11/18 06:14:31;;;;;;;;;45.50;38.25;;;;;-147.17;100.00;50064.50;5031857;28;51182;-64
2021/11/18 06:16:56;;;;;;;;;23.00;22.50;;;;;-147.17;100.00;50072.38;5033476;28;51124;-64
2021/11/18 06:19:22;;;;;;;;;22.00;18.25;;;;;-147.17;100.00;50064.50;5030610;28;52918;-64
2021/11/18 06:21:53;;;;;;;;;19.25;17.75;;;;;-147.17;100.00;50036.94;5017467;28;50936;-63
2021/11/18 06:24:19;;;;;;;;;10.75;9.75;;;;;-147.17;100.00;50092.03;5027595;28;51418;-63
2021/11/18 06:26:45;;;;;;;;;18.00;15.25;;;;;-147.17;100.00;50092.03;5033006;28;51058;-64
2021/11/18 06:29:12;;;;;;;;;23.25;23.25;;;;;-147.17;100.00;50060.56;5031225;28;51685;-64
2021/11/18 06:31:38;;;;;;;;;18.00;16.50;;;;;-147.17;100.00;50066.47;5031890;28;51083;-63
2021/11/18 06:34:03;;;;;;;;;16.75;15.00;;;;;-147.17;100.00;50062.53;5025466;28;51279;-64
2021/11/18 06:36:29;;;;;;;;;16.75;16.00;;;;;-147.17;100.00;50052.69;5032495;28;51389;-63
2021/11/18 06:38:55;;;;;;;;;16.50;15.25;;;;;-147.17;100.00;50064.50;5025649;28;52701;-64
2021/11/18 06:41:23;;;;;;;;;18.25;17.50;;;;;-147.17;100.00;50044.81;5029667;28;51297;-63
2021/11/18 06:43:49;;;;;;;;;15.00;14.25;;;;;-147.17;100.00;50066.47;5029700;28;51144;-64
2021/11/18 06:46:16;;;;;;;;;17.50;15.25;;;;;-147.17;100.00;50095.97;5029259;28;50986;-64
2021/11/18 06:48:41;;;;;;;;;13.75;11.75;;;;;-147.17;100.00;50033.00;5028077;28;53296;-64
2021/11/18 06:51:10;;;;;;;;;15.75;15.75;;;;;-147.17;100.00;50048.75;5028772;28;50906;-64
2021/11/18 06:53:37;;;;;;;;;17.00;15.00;;;;;-147.17;100.00;50105.81;5014699;28;51224;-64
2021/11/18 06:56:04;;;;;;;;;12.75;11.50;;;;;-147.17;100.00;50074.34;5033246;28;50889;-63
2021/11/18 06:58:29;;;;;;;;;16.50;15.75;;;;;-147.17;100.00;50088.13;5030506;28;51832;-66
2021/11/18 07:00:56;;;;;;;;;17.00;17.00;;;;;-147.17;100.00;50066.47;5032732;28;51222;-64
2021/11/18 07:03:22;;;;;;;;;16.75;14.50;;;;;-147.17;100.00;50090.09;5030944;28;51127;-64
2021/11/18 07:05:48;;;;;;;;;18.25;15.50;;;;;-147.17;100.00;50086.16;5032960;28;51189;-64
2021/11/18 07:08:14;;;;;;;;;16.00;15.25;;;;;-147.17;100.00;50070.41;5031104;28;51926;-64
2021/11/18 07:10:43;;;;;;;;;15.25;13.75;;;;;-147.17;100.00;50103.84;5047579;28;51187;-64
2021/11/18 07:13:17;;;;;;;;;16.75;15.25;;;;;-147.17;100.00;50082.22;5020644;28;51066;-64
2021/11/18 07:15:43;;;;;;;;;20.00;18.25;;;;;-147.17;100.00;50076.31;5032656;28;51167;-64
2021/11/18 07:18:08;;;;;;;;;14.75;13.50;;;;;-147.17;100.00;50092.03;5032127;28;52002;-63
2021/11/18 07:20:34;;;;;;;;;18.75;18.50;;;;;-147.17;100.00;50125.50;5029028;28;51038;-63
2021/11/18 07:22:59;;;;;;;;;14.00;12.75;;;;;-147.17;100.00;50086.16;5032598;28;51193;-63
2021/11/18 07:25:27;;;;;;;;;15.75;14.25;;;;;-147.17;100.00;50072.38;5029314;28;51454;-63
2021/11/18 07:27:53;;;;;;;;;16.00;15.25;;;;;-147.17;100.00;50084.19;5028641;28;51652;-63
2021/11/18 07:30:20;;;;;;;;;22.25;20.75;;;;;-147.17;100.00;50094.00;5027243;28;51199;-63
2021/11/18 07:32:46;;;;;;;;;18.00;17.00;;;;;-147.17;100.00;50066.47;5018458;28;51216;-63
2021/11/18 07:35:12;;;;;;;;;21.50;20.75;;;;;-147.17;100.00;50107.78;5026921;28;51326;-63
2021/11/18 07:37:38;;;;;;;;;18.00;17.50;;;;;-147.17;100.00;50099.91;5030785;28;54612;-63
2021/11/18 07:40:06;;;;;;;;;22.25;20.50;;;;;-147.17;100.00;50099.91;5020117;28;51235;-63
2021/11/18 07:42:32;;;;;;;;;18.75;17.00;;;;;-147.17;100.00;50095.97;5017556;28;51202;-63
2021/11/18 07:44:58;;;;;;;;;20.50;17.75;;;;;-147.17;100.00;50115.66;5025611;28;51023;-63
2021/11/18 07:47:24;;;;;;;;;22.50;21.00;;;;;-147.17;100.00;50076.31;5026239;28;52196;-64
2021/11/18 07:49:49;;;;;;;;;25.00;23.25;;;;;-147.17;100.00;50076.31;5029428;28;51065;-63
2021/11/18 07:52:15;;;;;;;;;20.00;17.00;;;;;-147.17;100.00;50092.03;5017296;28;51138;-63
2021/11/18 07:54:41;;;;;;;;;24.00;22.50;;;;;-147.17;100.00;50080.25;5022702;28;51172;-63
2021/11/18 07:57:06;;;;;;;;;24.00;20.50;;;;;-147.17;100.00;50092.03;5018467;28;51920;-63
2021/11/18 07:59:32;;;;;;;;;22.25;19.00;;;;;-147.17;100.00;50080.25;5021531;28;51138;-63
2021/11/18 08:01:57;;;;;;;;;22.50;20.75;;;;;-147.17;100.00;50111.72;5018359;28;51779;-64
2021/11/18 08:04:24;;;;;;;;;20.50;20.25;;;;;-147.17;100.00;50125.50;5019923;28;51189;-63
2021/11/18 08:06:50;;;;;;;;;19.75;19.00;;;;;-147.17;100.00;50095.97;5010896;28;52037;-63
2021/11/18 08:09:15;;;;;;;;;27.00;25.75;;;;;-147.17;100.00;50095.97;5029014;28;51113;-64
2021/11/18 08:11:48;;;;;;;;;31.25;28.75;;;;;-147.17;100.00;50074.34;5030693;28;51060;-63
2021/11/18 08:14:14;;;;;;;;;35.25;34.75;;;;;-147.17;100.00;50080.25;5030510;28;51073;-63
2021/11/18 08:16:41;;;;;;;;;46.25;40.75;;;;;-147.17;100.00;50097.94;5031484;28;52238;-63
2021/11/18 08:19:07;;;;;;;;;44.25;39.75;;;;;-147.17;100.00;50103.84;5029783;28;51096;-63
2021/11/18 08:21:34;;;;;;;;;55.00;46.00;;;;;-147.17;100.00;50092.03;5030532;28;51104;-63
2021/11/18 08:24:01;;;;;;;;;54.50;46.75;;;;;-147.17;100.00;50095.97;5028972;28;51088;-63
2021/11/18 08:26:27;;;;;;;;;47.50;40.25;;;;;-147.17;100.00;50092.03;5029211;28;51080;-64
2021/11/18 08:28:53;;;;;;;;;42.25;37.00;;;;;-147.17;100.00;50105.81;5026837;28;51177;-64
2021/11/18 08:31:19;;;;;;;;;42.75;38.00;;;;;-147.17;100.00;50095.97;5030144;28;51571;-64
2021/11/18 08:33:45;;;;;;;;;33.00;31.75;;;;;-147.17;100.00;50115.66;5018081;28;51714;-63
2021/11/18 08:36:11;;;;;;;;;35.75;33.50;;;;;-147.17;100.00;50095.97;5031258;28;51101;-64
2021/11/18 08:38:37;;;;;;;;;35.25;32.75;;;;;-147.17;100.00;50117.63;5027220;28;50986;-64
2021/11/18 08:41:07;;;;;;;;;56.75;46.75;;;;;-147.17;100.00;50117.63;5023215;28;51528;-62
2021/11/18 08:43:36;;;;;;;;;39.50;36.25;;;;;-147.17;100.00;50105.81;5029178;28;51003;-62
2021/11/18 08:46:04;;;;;;;;;37.25;33.50;;;;;-147.17;100.00;50139.28;5027671;28;51808;-62
2021/11/18 08:48:31;;;;;;;;;35.50;33.25;;;;;-147.17;100.00;50127.47;5031078;28;51079;-61
2021/11/18 08:50:57;;;;;;;;;30.00;26.25;;;;;-147.17;100.00;50107.78;5031663;28;51051;-61
2021/11/18 08:53:26;;;;;;;;;33.25;32.25;;;;;-147.17;100.00;50133.38;5032496;28;51222;-61
2021/11/18 08:55:53;;;;;;;;;35.00;32.75;;;;;-147.17;100.00;50127.47;5034037;28;51286;-62
2021/11/18 08:58:23;;;;;;;;;34.75;32.00;;;;;-147.17;100.00;50200.31;5034185;28;51064;-61
2021/11/18 09:00:57;;;;;;;;;37.00;34.50;;;;;-147.17;100.00;50170.78;5033071;28;51088;-61
2021/11/18 09:03:26;;;;;;;;;39.00;36.00;;;;;-147.17;100.00;50166.84;5034051;28;51152;-61
2021/11/18 09:05:52;;;;;;;;;37.75;34.00;;;;;-147.17;100.00;50188.50;5033978;28;51079;-61
2021/11/18 09:08:19;;;;;;;;;43.75;38.00;;;;;-147.17;100.00;50200.31;5033875;28;51022;-61
2021/11/18 09:10:46;;;;;;;;;46.00;39.00;;;;;-147.17;100.00;50186.53;5034103;28;51133;-61
2021/11/18 09:13:13;;;;;;;;;46.75;36.75;;;;;-147.17;100.00;50202.28;5034129;28;51238;-61
2021/11/18 09:15:39;;;;;;;;;41.25;36.75;;;;;-147.17;100.00;50186.53;5037837;28;51863;-60
2021/11/18 09:18:06;;;;;;;;;44.75;39.50;;;;;-147.17;100.00;50190.47;5014783;28;51073;-60
2021/11/18 09:20:33;;;;;;;;;43.75;37.50;;;;;-147.17;100.00;50218.03;5012965;28;51310;-61
2021/11/18 09:22:59;;;;;;;;;43.25;38.75;;;;;-147.17;100.00;50186.53;5032919;28;51597;-63
2021/11/18 09:25:31;;;;;;;;;46.75;39.75;;;;;-147.17;100.00;50172.75;5032811;28;51026;-61
2021/11/18 09:27:57;;;;;;;;;43.25;37.25;;;;;-147.17;100.00;50202.28;5034095;28;51160;-61
2021/11/18 09:30:43;;;;;;;;;43.00;38.00;;;;;-147.17;100.00;50184.56;5044797;28;51160;-62
2021/11/18 09:33:09;;;;;;;;;41.75;37.00;;;;;-147.17;100.00;50151.09;5031789;28;51303;-61
2021/11/18 09:35:56;;;;;;;;;43.75;37.75;;;;;-147.17;100.00;50151.09;5027639;28;52868;-61
2021/11/18 09:38:26;;;;;;;;;47.50;40.25;;;;;-147.17;100.00;50198.34;5029130;28;51192;-62
2021/11/18 09:40:58;;;;;;;;;50.50;40.75;;;;;-147.17;100.00;50176.69;5043547;28;50903;-61
2021/11/18 09:43:54;;;;;;;;;41.00;36.25;;;;;-147.17;100.00;50198.34;5037194;28;51128;-62
2021/11/18 09:46:44;;;;;;;;;46.00;39.75;;;;;-147.17;100.00;50174.72;5035497;28;51382;-62
2021/11/18 09:49:27;;;;;;;;;50.50;43.50;;;;;-147.17;100.00;50178.66;5033618;28;51126;-62
2021/11/18 09:52:15;;;;;;;;;47.00;40.25;;;;;-147.17;100.00;50206.22;5024568;28;51168;-62
2021/11/18 09:55:08;;;;;;;;;52.00;43.75;;;;;-147.17;100.00;50202.28;5028574;28;51259;-62
2021/11/18 09:57:53;;;;;;;;;48.25;41.00;;;;;-147.17;100.00;50216.06;5023808;28;51055;-62
2021/11/18 10:00:46;;;;;;;;;49.00;39.75;;;;;-147.17;100.00;50194.41;5029020;28;51112;-62
2021/11/18 10:03:43;;;;;;;;;46.50;40.00;;;;;-147.17;100.00;50218.03;5015525;28;51844;-60
2021/11/18 10:06:39;;;;;;;;;50.00;40.00;;;;;-147.17;100.00;50182.59;5030599;28;50983;-61
2021/11/18 10:09:10;;;;;;;;;48.50;41.00;;;;;-147.17;100.00;50229.84;5029568;28;51426;-61
2021/11/18 10:12:06;;;;;;;;;44.50;37.00;;;;;-147.17;100.00;50229.84;5027390;28;51235;-61
2021/11/18 10:14:53;;;;;;;;;49.00;40.00;;;;;-147.17;100.00;50241.66;5032635;28;51100;-61
2021/11/18 10:17:23;;;;;;;;;52.25;43.25;;;;;-147.17;100.00;50265.28;5028986;28;51307;-62
2021/11/18 10:19:53;;;;;;;;;46.50;41.00;;;;;-147.17;100.00;50221.97;5030651;28;52949;-62
2021/11/18 10:22:21;;;;;;;;;50.50;43.25;;;;;-147.17;100.00;50220.00;5030367;28;51272;-61
2021/11/18 10:24:50;;;;;;;;;52.00;43.00;;;;;-147.17;100.00;50218.03;5031634;28;51106;-62
2021/11/18 10:27:35;;;;;;;;;54.00;42.50;;;;;-147.17;100.00;50241.66;5040558;28;51065;-61
2021/11/18 10:30:35;;;;;;;;;51.75;43.75;;;;;-147.17;100.00;50247.56;5032342;28;50959;-61
2021/11/18 10:33:10;;;;;;;;;52.00;42.25;;;;;-147.17;100.00;50257.41;5027858;28;51073;-61
2021/11/18 10:35:35;;;;;;;;;56.00;47.50;;;;;-147.17;100.00;50263.31;5027324;28;52624;-61
2021/11/18 10:38:21;;;;;;;;;54.50;45.75;;;;;-147.17;100.00;50223.94;5027485;28;51172;-62
2021/11/18 10:41:20;;;;;;;;;56.50;46.25;;;;;-147.17;100.00;50251.50;5027798;28;51673;-62
2021/11/18 10:44:04;;;;;;;;;54.50;44.00;;;;;-147.17;100.00;50245.59;5043058;28;51176;-62
2021/11/18 10:46:36;;;;;;;;;54.25;44.50;;;;;-147.17;100.00;50283.00;5030812;28;51006;-65
2021/11/18 10:49:04;;;;;;;;;52.75;43.00;;;;;-147.17;100.00;50306.63;5021693;28;51268;-61
2021/11/18 10:51:38;;;;;;;;;58.25;47.25;;;;;-147.17;100.00;50257.41;5028671;28;53082;-62
2021/11/18 10:54:08;;;;;;;;;54.00;43.00;;;;;-147.17;100.00;50265.28;5027401;28;51332;-61
2021/11/18 10:56:39;;;;;;;;;60.00;47.50;;;;;-147.17;100.00;50243.63;5020923;28;51300;-63
2021/11/18 10:59:12;;;;;;;;;61.75;50.00;;;;;-147.17;100.00;50192.44;5040127;28;51126;-62
2021/11/18 11:01:43;;;;;;;;;67.00;54.00;;;;;-147.17;100.00;50245.59;5027972;28;52909;-62